Time;durP1;ratioP1;P1;durP2;ratioP2;P2;SDS_P1;SDS_P2;PMS_P1;PMS_P2;Temp;Humidity;BMP_temperature;BMP_pressure;BME280_temperature;BME280_humidity;BME280_pressure;Samples;Min_cycle;Max_cycle;Signal;HPM_P1;HPM_P2
2022/04/10 00:02:06;;;;;;;;;;;6.10;99.90;;;;;;5014567;28;19915;-78
2022/04/10 00:04:31;;;;;;;;;;;5.90;99.90;;;;;;5014503;28;20332;-78
2022/04/10 00:06:57;;;;;;;;;;;6.00;99.90;;;;;;5014409;28;19917;-78
2022/04/10 00:09:22;;;;;;;;;;;5.90;99.90;;;;;;5014739;28;19913;-78
2022/04/10 00:11:48;;;;;;;;;;;5.40;99.90;;;;;;5014418;28;20449;-78
2022/04/10 00:14:13;;;;;;;;;;;5.10;99.90;;;;;;5014356;28;19933;-78
2022/04/10 00:16:39;;;;;;;;;;;5.30;99.90;;;;;;5014312;28;20377;-78
2022/04/10 00:19:05;;;;;;;;;;;5.70;99.90;;;;;;5014658;28;19960;-78
2022/04/10 00:21:32;;;;;;;;;;;5.80;99.90;;;;;;5014260;28;19909;-78
2022/04/10 00:23:58;;;;;;;;;;;5.90;99.90;;;;;;5014187;28;19929;-78
2022/04/10 00:26:23;;;;;;;;;;;5.70;99.90;;;;;;5014101;28;19917;-78
2022/04/10 00:28:51;;;;;;;;;;;5.20;99.90;;;;;;4996489;28;20393;-76
2022/04/10 00:31:17;;;;;;;;;;;5.00;99.90;;;;;;5014270;28;19909;-78
2022/04/10 00:33:44;;;;;;;;;;;4.90;99.90;;;;;;4996460;28;19910;-78
2022/04/10 00:36:09;;;;;;;;;;;5.40;99.90;;;;;;5014253;28;19913;-78
2022/04/10 00:38:35;;;;;;;;;;;5.50;99.90;;;;;;4996303;28;19916;-78
2022/04/10 00:41:01;;;;;;;;;;;5.40;99.90;;;;;;4996331;28;19936;-77
2022/04/10 00:43:32;;;;;;;;;;;5.20;99.90;;;;;;5014246;28;19916;-78
2022/04/10 00:45:58;;;;;;;;;;;5.10;99.90;;;;;;5013979;28;19917;-77
2022/04/10 00:48:24;;;;;;;;;;;5.00;99.90;;;;;;5013928;28;19973;-78
2022/04/10 00:53:34;;;;;;;;;;;5.20;99.90;;;;;;5014012;28;20004;-78
2022/04/10 00:56:00;;;;;;;;;;;5.30;99.90;;;;;;4996266;28;19948;-78
2022/04/10 00:58:27;;;;;;;;;;;5.20;99.90;;;;;;5013805;28;19973;-78
2022/04/10 01:00:53;;;;;;;;;;;5.30;99.90;;;;;;4996165;28;19932;-78
2022/04/10 01:03:19;;;;;;;;;;;5.00;99.90;;;;;;5013803;28;19955;-78
2022/04/10 01:05:45;;;;;;;;;;;5.10;99.90;;;;;;5013681;28;20399;-78
2022/04/10 01:08:11;;;;;;;;;;;5.00;99.90;;;;;;5013727;28;20463;-77
2022/04/10 01:10:36;;;;;;;;;;;5.20;99.90;;;;;;5013651;28;19945;-78
2022/04/10 01:13:02;;;;;;;;;;;5.30;99.90;;;;;;5013648;28;19963;-78
2022/04/10 01:15:27;;;;;;;;;;;4.90;99.90;;;;;;5013735;28;20301;-77
2022/04/10 01:17:53;;;;;;;;;;;4.70;99.90;;;;;;4995974;28;19957;-77
2022/04/10 01:20:20;;;;;;;;;;;4.70;99.90;;;;;;5017569;28;19909;-78
2022/04/10 01:22:46;;;;;;;;;;;4.80;99.90;;;;;;5017629;28;20000;-78
2022/04/10 01:25:11;;;;;;;;;;;4.70;99.90;;;;;;5017546;28;19913;-78
2022/04/10 01:27:40;;;;;;;;;;;5.00;99.90;;;;;;5017438;28;19914;-77
2022/04/10 01:30:07;;;;;;;;;;;5.20;99.90;;;;;;5017395;28;19910;-77
2022/04/10 01:32:33;;;;;;;;;;;5.10;99.90;;;;;;5017376;28;19909;-77
2022/04/10 01:35:00;;;;;;;;;;;4.70;99.90;;;;;;4999610;28;20423;-78
2022/04/10 01:37:26;;;;;;;;;;;4.80;99.90;;;;;;4999711;28;19910;-77
2022/04/10 01:39:52;;;;;;;;;;;4.90;99.90;;;;;;5017232;28;20436;-78
2022/04/10 01:42:18;;;;;;;;;;;4.90;99.90;;;;;;5017154;28;19913;-78
2022/04/10 01:44:43;;;;;;;;;;;4.80;99.90;;;;;;4999551;28;19916;-77
2022/04/10 01:47:09;;;;;;;;;;;4.70;99.90;;;;;;5017097;28;19953;-77
2022/04/10 01:49:35;;;;;;;;;;;4.40;99.90;;;;;;4999397;28;20285;-78
2022/04/10 01:52:01;;;;;;;;;;;4.40;99.90;;;;;;5016966;28;20392;-78
2022/04/10 01:54:26;;;;;;;;;;;4.70;99.90;;;;;;4999352;28;19910;-78
2022/04/10 01:56:52;;;;;;;;;;;4.70;99.90;;;;;;5016824;28;19913;-78
2022/04/10 01:59:18;;;;;;;;;;;4.50;99.90;;;;;;4999260;28;19952;-78
2022/04/10 02:01:43;;;;;;;;;;;4.30;99.90;;;;;;5016768;28;19937;-79
2022/04/10 02:04:09;;;;;;;;;;;4.10;99.90;;;;;;5017181;28;19964;-77
2022/04/10 02:06:34;;;;;;;;;;;4.20;99.90;;;;;;4999111;28;20355;-77
2022/04/10 02:09:00;;;;;;;;;;;4.40;99.90;;;;;;4999057;28;20377;-78
2022/04/10 02:11:26;;;;;;;;;;;4.60;99.90;;;;;;5016580;28;19988;-78
2022/04/10 02:13:51;;;;;;;;;;;4.80;99.90;;;;;;5016485;28;19984;-78
2022/04/10 02:16:18;;;;;;;;;;;4.40;99.90;;;;;;5016419;28;20105;-78
2022/04/10 02:18:43;;;;;;;;;;;4.30;99.90;;;;;;5016481;28;20373;-78
2022/04/10 02:21:10;;;;;;;;;;;4.50;99.90;;;;;;5016571;28;20004;-78
2022/04/10 02:23:35;;;;;;;;;;;4.50;99.90;;;;;;5016355;28;19997;-78
2022/04/10 02:26:01;;;;;;;;;;;4.40;99.90;;;;;;5016398;28;19956;-78
2022/04/10 02:28:27;;;;;;;;;;;4.30;99.90;;;;;;5016333;28;19913;-78
2022/04/10 02:30:53;;;;;;;;;;;4.40;99.90;;;;;;4997501;28;19910;-78
2022/04/10 02:33:19;;;;;;;;;;;4.60;99.90;;;;;;5016437;28;19948;-78
2022/04/10 02:35:45;;;;;;;;;;;4.60;99.90;;;;;;4998546;28;19921;-78
2022/04/10 02:38:10;;;;;;;;;;;4.60;99.90;;;;;;5016195;28;19910;-78
2022/04/10 02:40:36;;;;;;;;;;;4.60;99.90;;;;;;5016285;28;19910;-78
2022/04/10 02:43:02;;;;;;;;;;;4.20;99.90;;;;;;5016169;28;19916;-78
2022/04/10 02:45:27;;;;;;;;;;;4.00;99.90;;;;;;5015986;28;19913;-78
2022/04/10 02:47:53;;;;;;;;;;;4.20;99.90;;;;;;5015909;28;20400;-77
2022/04/10 02:50:19;;;;;;;;;;;4.50;99.90;;;;;;5016075;28;19960;-79
2022/04/10 02:52:44;;;;;;;;;;;4.40;99.90;;;;;;5016400;28;20317;-78
2022/04/10 02:55:10;;;;;;;;;;;4.50;99.90;;;;;;4998103;28;19914;-78
2022/04/10 02:57:37;;;;;;;;;;;4.50;99.90;;;;;;5015753;28;19909;-78
2022/04/10 03:00:04;;;;;;;;;;;4.10;99.90;;;;;;5015714;28;19993;-77
2022/04/10 03:02:29;;;;;;;;;;;4.00;99.90;;;;;;4998134;28;19915;-78
2022/04/10 03:04:55;;;;;;;;;;;3.90;99.90;;;;;;4998112;28;20388;-77
2022/04/10 03:07:20;;;;;;;;;;;4.10;99.90;;;;;;5016067;28;19909;-78
2022/04/10 03:09:47;;;;;;;;;;;4.10;99.90;;;;;;5015468;28;19959;-78
2022/04/10 03:12:12;;;;;;;;;;;4.20;99.90;;;;;;4997929;28;20353;-78
2022/04/10 03:14:38;;;;;;;;;;;4.20;99.90;;;;;;5015083;28;19933;-78
2022/04/10 03:17:04;;;;;;;;;;;3.90;99.90;;;;;;5015616;28;19913;-78
2022/04/10 03:19:29;;;;;;;;;;;3.80;99.90;;;;;;5015447;28;20385;-77
2022/04/10 03:21:55;;;;;;;;;;;4.00;99.90;;;;;;5015302;28;19917;-77
2022/04/10 03:24:20;;;;;;;;;;;4.00;99.90;;;;;;5015264;28;19945;-78
2022/04/10 03:26:46;;;;;;;;;;;3.90;99.90;;;;;;5015285;28;20369;-77
2022/04/10 03:29:12;;;;;;;;;;;4.10;99.90;;;;;;5015148;28;19932;-78
2022/04/10 03:31:38;;;;;;;;;;;4.20;99.90;;;;;;5015219;28;20356;-79
2022/04/10 03:34:04;;;;;;;;;;;4.00;99.90;;;;;;4997488;28;19952;-78
2022/04/10 03:36:29;;;;;;;;;;;4.00;99.90;;;;;;4997373;28;19945;-78
2022/04/10 03:38:55;;;;;;;;;;;4.00;99.90;;;;;;5014998;28;19910;-78
2022/04/10 03:41:20;;;;;;;;;;;3.90;99.90;;;;;;5014649;28;19955;-78
2022/04/10 03:43:46;;;;;;;;;;;3.90;99.90;;;;;;5014965;28;19913;-78
2022/04/10 03:46:11;;;;;;;;;;;3.70;99.90;;;;;;5014923;28;20281;-78
2022/04/10 03:48:37;;;;;;;;;;;3.50;99.90;;;;;;5014869;28;19980;-78
2022/04/10 03:51:03;;;;;;;;;;;3.80;99.90;;;;;;5014780;28;20001;-78
2022/04/10 03:53:28;;;;;;;;;;;4.00;99.90;;;;;;5014779;28;20321;-78
2022/04/10 03:55:54;;;;;;;;;;;3.70;99.90;;;;;;5014608;28;19914;-78
2022/04/10 03:58:19;;;;;;;;;;;3.60;99.90;;;;;;5014638;28;19916;-78
2022/04/10 04:00:46;;;;;;;;;;;3.90;99.90;;;;;;4997029;28;19996;-78
2022/04/10 04:03:11;;;;;;;;;;;3.80;99.90;;;;;;5014583;28;19909;-77
2022/04/10 04:05:37;;;;;;;;;;;3.70;99.90;;;;;;5014836;28;20404;-78
2022/04/10 04:08:03;;;;;;;;;;;3.40;99.90;;;;;;5014469;28;19910;-78
2022/04/10 04:10:29;;;;;;;;;;;3.30;99.90;;;;;;4996754;28;20002;-78
2022/04/10 04:12:55;;;;;;;;;;;3.20;99.90;;;;;;5014232;28;19949;-79
2022/04/10 04:15:20;;;;;;;;;;;3.50;99.90;;;;;;5014836;28;19913;-78
2022/04/10 04:17:46;;;;;;;;;;;3.80;99.90;;;;;;4996691;28;19988;-77
2022/04/10 04:20:13;;;;;;;;;;;3.90;99.90;;;;;;4996669;28;19944;-77
2022/04/10 04:22:39;;;;;;;;;;;3.70;99.90;;;;;;5014393;28;19909;-77
2022/04/10 04:25:06;;;;;;;;;;;3.60;99.90;;;;;;5014241;28;20437;-77
2022/04/10 04:27:31;;;;;;;;;;;3.70;99.90;;;;;;5014658;28;20001;-78
2022/04/10 04:29:57;;;;;;;;;;;3.70;99.90;;;;;;5014199;28;19953;-78
2022/04/10 04:32:23;;;;;;;;;;;3.60;99.90;;;;;;5014176;28;19920;-78
2022/04/10 04:34:48;;;;;;;;;;;3.40;99.90;;;;;;5013980;28;20000;-78
2022/04/10 04:37:14;;;;;;;;;;;3.50;99.90;;;;;;5014073;28;19910;-78
2022/04/10 04:39:40;;;;;;;;;;;3.30;99.90;;;;;;5014062;28;19916;-78
2022/04/10 04:42:06;;;;;;;;;;;3.30;99.90;;;;;;5014086;28;19909;-78
2022/04/10 04:44:31;;;;;;;;;;;3.20;99.90;;;;;;5013952;28;19910;-78
2022/04/10 04:46:57;;;;;;;;;;;3.40;99.90;;;;;;4996353;28;20285;-78
2022/04/10 04:49:23;;;;;;;;;;;3.60;99.90;;;;;;4996252;28;19914;-78
2022/04/10 04:51:48;;;;;;;;;;;3.70;99.90;;;;;;5013953;28;19916;-78
2022/04/10 04:54:14;;;;;;;;;;;3.70;99.90;;;;;;5013143;28;19910;-78
2022/04/10 04:56:39;;;;;;;;;;;3.40;99.90;;;;;;5013803;28;20421;-78
2022/04/10 04:59:05;;;;;;;;;;;3.20;99.90;;;;;;5013864;28;20370;-77
2022/04/10 05:01:31;;;;;;;;;;;3.10;99.90;;;;;;5014226;28;19916;-78
2022/04/10 05:03:56;;;;;;;;;;;3.20;99.90;;;;;;5013829;28;19996;-78
2022/04/10 05:06:22;;;;;;;;;;;3.10;99.90;;;;;;5013813;28;19916;-77
2022/04/10 05:08:47;;;;;;;;;;;3.00;99.90;;;;;;5013755;28;19936;-78
2022/04/10 05:11:13;;;;;;;;;;;3.00;99.90;;;;;;4996077;28;19956;-78
2022/04/10 05:13:39;;;;;;;;;;;2.90;99.90;;;;;;5013709;28;19921;-78
2022/04/10 05:16:05;;;;;;;;;;;2.90;99.90;;;;;;5013674;28;19914;-77
2022/04/10 05:18:31;;;;;;;;;;;3.20;99.90;;;;;;4996089;28;19916;-79
2022/04/10 05:20:56;;;;;;;;;;;3.40;99.90;;;;;;5013660;28;19917;-78
2022/04/10 05:23:22;;;;;;;;;;;3.40;99.90;;;;;;5013668;28;19910;-77
2022/04/10 05:25:49;;;;;;;;;;;3.60;99.90;;;;;;5013994;28;20274;-78
2022/04/10 05:28:15;;;;;;;;;;;3.50;99.90;;;;;;5013728;28;19913;-79
2022/04/10 05:30:42;;;;;;;;;;;3.50;99.90;;;;;;5013631;28;20392;-78
2022/04/10 05:33:08;;;;;;;;;;;3.50;99.90;;;;;;5013525;28;20055;-77
2022/04/10 05:35:33;;;;;;;;;;;3.50;99.90;;;;;;5013436;28;19913;-78
2022/04/10 05:37:59;;;;;;;;;;;3.60;99.90;;;;;;5013561;28;19917;-77
2022/04/10 05:40:25;;;;;;;;;;;3.60;99.90;;;;;;5013474;28;19917;-78
2022/04/10 05:42:50;;;;;;;;;;;3.30;99.90;;;;;;5013437;28;19956;-78
2022/04/10 05:45:16;;;;;;;;;;;3.60;99.90;;;;;;5013792;28;20272;-77
2022/04/10 05:47:42;;;;;;;;;;;3.70;99.90;;;;;;5013370;28;19909;-78
2022/04/10 05:50:12;;;;;;;;;;;3.70;99.90;;;;;;5013507;28;19914;-78
2022/04/10 05:52:38;;;;;;;;;;;3.80;99.90;;;;;;5013379;28;20016;-78
2022/04/10 05:55:05;;;;;;;;;;;3.80;99.90;;;;;;5013413;28;19910;-77
2022/04/10 05:57:30;;;;;;;;;;;3.80;99.90;;;;;;5013228;28;19910;-79
2022/04/10 05:59:56;;;;;;;;;;;3.80;99.90;;;;;;5013295;28;20060;-78
2022/04/10 06:02:21;;;;;;;;;;;4.10;99.90;;;;;;5013367;28;19910;-77
2022/04/10 06:04:47;;;;;;;;;;;4.20;99.90;;;;;;5014564;28;20000;-78
2022/04/10 06:07:13;;;;;;;;;;;4.40;99.90;;;;;;5016639;28;19909;-78
2022/04/10 06:09:38;;;;;;;;;;;4.50;99.90;;;;;;5016621;28;20366;-78
2022/04/10 06:12:04;;;;;;;;;;;4.40;99.90;;;;;;5016668;28;19937;-78
2022/04/10 06:14:30;;;;;;;;;;;4.50;99.90;;;;;;5016390;28;20028;-78
2022/04/10 06:16:55;;;;;;;;;;;4.50;99.90;;;;;;5016787;28;19913;-78
2022/04/10 06:19:21;;;;;;;;;;;4.70;99.90;;;;;;5016743;28;19909;-78
2022/04/10 06:21:46;;;;;;;;;;;5.10;99.90;;;;;;5016535;28;19918;-78
2022/04/10 06:24:12;;;;;;;;;;;5.30;99.90;;;;;;5016383;28;19909;-78
2022/04/10 06:26:37;;;;;;;;;;;5.70;99.90;;;;;;5016581;28;19914;-78
2022/04/10 06:29:03;;;;;;;;;;;6.30;99.90;;;;;;5016635;28;20417;-78
2022/04/10 06:31:28;;;;;;;;;;;6.50;99.90;;;;;;5016244;28;19909;-78
2022/04/10 06:33:56;;;;;;;;;;;6.60;99.90;;;;;;5016237;28;19913;-78
2022/04/10 06:36:22;;;;;;;;;;;6.70;99.90;;;;;;4998517;28;20398;-78
2022/04/10 06:38:49;;;;;;;;;;;6.70;99.90;;;;;;5016458;28;19913;-78
2022/04/10 06:41:14;;;;;;;;;;;6.70;99.90;;;;;;5016233;28;19909;-79
2022/04/10 06:43:40;;;;;;;;;;;6.50;99.90;;;;;;5016016;28;19917;-78
2022/04/10 06:46:06;;;;;;;;;;;6.30;99.90;;;;;;5015963;28;19952;-78
2022/04/10 06:48:32;;;;;;;;;;;6.20;99.90;;;;;;4998404;28;19917;-77
2022/04/10 06:50:57;;;;;;;;;;;6.00;99.90;;;;;;4998242;28;20345;-78
2022/04/10 06:53:24;;;;;;;;;;;6.00;99.90;;;;;;5015886;28;19976;-78
2022/04/10 06:55:49;;;;;;;;;;;5.90;99.90;;;;;;5015775;28;20020;-78
2022/04/10 06:58:17;;;;;;;;;;;6.00;99.90;;;;;;5015785;28;19953;-78
2022/04/10 07:00:42;;;;;;;;;;;6.30;99.90;;;;;;5015788;28;20383;-78
2022/04/10 07:03:08;;;;;;;;;;;6.60;99.90;;;;;;5015686;28;19988;-78
2022/04/10 07:05:33;;;;;;;;;;;7.00;99.90;;;;;;4998006;28;19909;-77
2022/04/10 07:07:59;;;;;;;;;;;7.50;99.90;;;;;;5015518;28;19959;-78
2022/04/10 07:10:24;;;;;;;;;;;7.70;99.90;;;;;;5015521;28;19916;-78
2022/04/10 07:12:50;;;;;;;;;;;8.40;99.90;;;;;;5015401;28;19909;-78
2022/04/10 07:15:17;;;;;;;;;;;8.70;99.90;;;;;;5015478;28;19920;-78
2022/04/10 07:17:43;;;;;;;;;;;9.00;99.90;;;;;;5014800;28;19960;-78
2022/04/10 07:20:08;;;;;;;;;;;9.40;99.90;;;;;;5015360;28;19961;-79
2022/04/10 07:25:32;;;;;;;;;;;9.70;99.90;;;;;;4992635;28;19932;-79
2022/04/10 07:27:57;;;;;;;;;;;9.70;99.90;;;;;;5015531;28;20361;-78
2022/04/10 07:30:23;;;;;;;;;;;10.00;99.90;;;;;;5015276;28;19913;-78
2022/04/10 07:32:56;;;;;;;;;;;10.40;99.90;;;;;;5015147;28;19951;-79
2022/04/10 07:35:22;;;;;;;;;;;10.80;99.90;;;;;;5015374;28;19913;-78
2022/04/10 07:37:48;;;;;;;;;;;11.10;99.90;;;;;;5015279;28;19913;-79
2022/04/10 07:40:14;;;;;;;;;;;10.70;99.90;;;;;;5015172;28;20285;-79
2022/04/10 07:42:42;;;;;;;;;;;10.80;99.90;;;;;;5014924;28;20396;-79
2022/04/10 07:45:08;;;;;;;;;;;10.80;99.90;;;;;;5014885;28;19996;-79
2022/04/10 07:47:33;;;;;;;;;;;10.50;99.90;;;;;;5015040;28;19951;-79
2022/04/10 07:49:59;;;;;;;;;;;11.40;99.90;;;;;;5014954;28;19910;-79
2022/04/10 07:52:25;;;;;;;;;;;11.80;99.90;;;;;;5014831;28;19960;-78
2022/04/10 07:54:52;;;;;;;;;;;12.00;99.90;;;;;;5014827;28;19909;-79
2022/04/10 07:57:18;;;;;;;;;;;13.00;99.90;;;;;;4997025;28;19913;-78
2022/04/10 07:59:44;;;;;;;;;;;13.80;99.90;;;;;;5014683;28;19910;-79
2022/04/10 08:02:10;;;;;;;;;;;13.90;99.90;;;;;;5014575;28;19953;-79
2022/04/10 08:04:35;;;;;;;;;;;13.60;99.90;;;;;;5014534;28;20389;-80
2022/04/10 08:07:01;;;;;;;;;;;13.90;99.90;;;;;;5014546;28;19992;-80
2022/04/10 08:09:27;;;;;;;;;;;13.80;99.90;;;;;;5014404;28;19909;-79
2022/04/10 08:11:53;;;;;;;;;;;14.30;99.90;;;;;;5014435;28;20301;-79
2022/04/10 08:14:19;;;;;;;;;;;14.40;99.90;;;;;;5014242;28;19930;-79
2022/04/10 08:16:45;;;;;;;;;;;15.20;99.20;;;;;;5014440;28;19917;-79
2022/04/10 08:19:11;;;;;;;;;;;15.30;95.00;;;;;;4996670;28;19910;-80
2022/04/10 08:21:36;;;;;;;;;;;15.90;95.70;;;;;;5014272;28;20378;-79
2022/04/10 08:24:02;;;;;;;;;;;15.40;93.00;;;;;;4996606;28;19909;-79
2022/04/10 08:26:28;;;;;;;;;;;15.50;92.90;;;;;;5014596;28;19920;-80
2022/04/10 08:28:53;;;;;;;;;;;15.60;94.10;;;;;;5013275;28;20373;-79
2022/04/10 08:31:19;;;;;;;;;;;15.70;92.00;;;;;;5014303;28;19909;-79
2022/04/10 08:33:44;;;;;;;;;;;16.40;92.30;;;;;;5014118;28;19909;-79
2022/04/10 08:36:10;;;;;;;;;;;16.10;89.90;;;;;;5014019;28;20428;-79
2022/04/10 08:38:35;;;;;;;;;;;16.50;90.50;;;;;;5014047;28;19910;-80
2022/04/10 08:41:01;;;;;;;;;;;16.40;86.30;;;;;;5014299;28;19956;-79
2022/04/10 08:43:28;;;;;;;;;;;16.50;83.70;;;;;;5014124;28;19916;-78
2022/04/10 08:45:55;;;;;;;;;;;16.70;86.90;;;;;;5014147;28;19909;-79
2022/04/10 08:48:22;;;;;;;;;;;17.50;86.60;;;;;;5013948;28;19932;-79
2022/04/10 08:50:48;;;;;;;;;;;18.40;84.10;;;;;;4996588;28;20002;-78
2022/04/10 08:53:14;;;;;;;;;;;18.40;81.40;;;;;;5014088;28;19913;-79
2022/04/10 08:55:40;;;;;;;;;;;18.60;76.70;;;;;;5013904;28;19924;-78
2022/04/10 08:58:06;;;;;;;;;;;18.30;77.20;;;;;;5013786;28;19910;-79
2022/04/10 09:00:31;;;;;;;;;;;18.70;78.80;;;;;;5013833;28;19916;-78
2022/04/10 09:02:57;;;;;;;;;;;19.50;73.90;;;;;;5014048;28;20348;-79
2022/04/10 09:05:23;;;;;;;;;;;19.20;69.10;;;;;;4996120;28;19913;-78
2022/04/10 09:08:05;;;;;;;;;;;19.30;71.50;;;;;;5013679;28;19934;-79
2022/04/10 09:10:51;;;;;;;;;;;19.80;67.80;;;;;;5013632;28;19917;-78
2022/04/10 09:13:19;;;;;;;;;;;19.40;69.10;;;;;;5013993;28;19968;-79
2022/04/10 09:15:45;;;;;;;;;;;20.20;67.80;;;;;;5013675;28;19917;-79
2022/04/10 09:18:11;;;;;;;;;;;20.50;65.70;;;;;;4995928;28;19909;-79
2022/04/10 09:20:36;;;;;;;;;;;20.80;62.10;;;;;;5013650;28;19910;-80
2022/04/10 09:23:09;;;;;;;;;;;21.00;61.70;;;;;;5013619;28;20435;-79
2022/04/10 09:25:44;;;;;;;;;;;22.60;60.60;;;;;;4995898;28;19920;-79
2022/04/10 09:28:09;;;;;;;;;;;21.90;55.10;;;;;;5013693;28;19909;-80
2022/04/10 09:30:35;;;;;;;;;;;21.90;56.10;;;;;;5013548;28;20380;-80
2022/04/10 09:33:01;;;;;;;;;;;21.10;57.60;;;;;;4995910;28;19909;-80
2022/04/10 09:35:41;;;;;;;;;;;22.10;56.20;;;;;;4995909;28;20044;-80
2022/04/10 09:38:06;;;;;;;;;;;23.50;54.50;;;;;;5013731;28;19910;-79
2022/04/10 09:40:33;;;;;;;;;;;23.10;52.30;;;;;;5015780;28;19948;-80
2022/04/10 09:43:05;;;;;;;;;;;23.90;52.40;;;;;;4999487;28;19913;-79
2022/04/10 09:45:41;;;;;;;;;;;25.00;49.50;;;;;;4999350;28;19913;-79
2022/04/10 09:48:34;;;;;;;;;;;24.00;49.40;;;;;;5017211;28;19949;-79
2022/04/10 09:51:01;;;;;;;;;;;24.20;48.70;;;;;;4999109;28;19910;-80
2022/04/10 09:53:27;;;;;;;;;;;24.40;43.60;;;;;;5016990;28;20004;-79
2022/04/10 09:55:57;;;;;;;;;;;23.60;45.00;;;;;;5017196;28;19996;-79
2022/04/10 09:58:23;;;;;;;;;;;24.30;46.80;;;;;;5016977;28;19909;-79
2022/04/10 10:00:49;;;;;;;;;;;23.00;46.90;;;;;;5016893;28;19921;-79
2022/04/10 10:03:16;;;;;;;;;;;23.40;46.50;;;;;;4999270;28;19909;-80
2022/04/10 10:05:42;;;;;;;;;;;24.90;46.00;;;;;;5017014;28;19913;-80
2022/04/10 10:08:08;;;;;;;;;;;24.80;43.20;;;;;;5016944;28;19951;-80
2022/04/10 10:10:35;;;;;;;;;;;26.20;43.80;;;;;;5016821;28;19913;-80
2022/04/10 10:13:01;;;;;;;;;;;25.50;43.10;;;;;;5016439;28;20072;-79
2022/04/10 10:15:27;;;;;;;;;;;26.70;42.10;;;;;;4998706;28;20330;-80
2022/04/10 10:17:54;;;;;;;;;;;26.20;39.20;;;;;;5016501;28;19909;-80
2022/04/10 10:20:23;;;;;;;;;;;25.70;40.30;;;;;;4998920;28;19932;-80
2022/04/10 10:22:49;;;;;;;;;;;25.20;40.40;;;;;;4998704;28;19914;-81
2022/04/10 10:25:27;;;;;;;;;;;24.40;41.30;;;;;;5016339;28;19909;-79
2022/04/10 10:27:59;;;;;;;;;;;24.20;42.20;;;;;;4998474;28;19960;-79
2022/04/10 10:30:24;;;;;;;;;;;24.90;42.50;;;;;;5016335;28;19909;-80
2022/04/10 10:32:55;;;;;;;;;;;26.70;42.00;;;;;;5016254;28;19909;-80
2022/04/10 10:35:34;;;;;;;;;;;28.30;40.40;;;;;;5016455;28;19910;-80
2022/04/10 10:38:00;;;;;;;;;;;30.00;39.60;;;;;;5016056;28;19956;-81
2022/04/10 10:40:26;;;;;;;;;;;26.20;38.60;;;;;;4998452;28;19910;-79
2022/04/10 10:42:55;;;;;;;;;;;26.10;37.80;;;;;;5015959;28;19910;-80
2022/04/10 10:45:33;;;;;;;;;;;26.00;39.50;;;;;;4998206;28;19917;-80
2022/04/10 10:48:23;;;;;;;;;;;26.70;38.00;;;;;;4998315;28;19920;-80
2022/04/10 10:50:52;;;;;;;;;;;24.80;37.50;;;;;;5010104;28;20365;-81
2022/04/10 10:53:23;;;;;;;;;;;28.30;39.00;;;;;;5015674;28;20262;-80
2022/04/10 10:55:52;;;;;;;;;;;28.60;36.80;;;;;;4997973;28;19956;-80
2022/04/10 10:58:30;;;;;;;;;;;28.40;37.10;;;;;;4998180;28;20259;-81
2022/04/10 11:00:59;;;;;;;;;;;27.60;37.70;;;;;;4998259;28;20012;-80
2022/04/10 11:03:28;;;;;;;;;;;28.80;37.40;;;;;;5015707;28;19944;-80
2022/04/10 11:06:03;;;;;;;;;;;30.10;37.10;;;;;;4998013;28;19963;-80
2022/04/10 11:08:37;;;;;;;;;;;27.50;36.10;;;;;;5015840;28;20289;-80
2022/04/10 11:11:03;;;;;;;;;;;26.10;40.40;;;;;;5015663;28;20023;-80
2022/04/10 11:13:40;;;;;;;;;;;27.60;37.10;;;;;;5015342;28;19928;-79
2022/04/10 11:16:10;;;;;;;;;;;27.10;36.80;;;;;;5015423;28;19909;-80
2022/04/10 11:18:40;;;;;;;;;;;26.50;36.30;;;;;;5015414;28;19909;-80
2022/04/10 11:21:15;;;;;;;;;;;25.80;37.30;;;;;;4997755;28;19916;-80
2022/04/10 11:23:44;;;;;;;;;;;28.10;36.90;;;;;;4997652;28;20277;-79
2022/04/10 11:26:14;;;;;;;;;;;26.50;36.00;;;;;;5015615;28;20313;-80
2022/04/10 11:29:01;;;;;;;;;;;27.20;36.50;;;;;;4997403;28;20373;-81
2022/04/10 11:31:33;;;;;;;;;;;27.00;36.20;;;;;;5015413;28;19917;-80
2022/04/10 11:34:08;;;;;;;;;;;26.50;37.50;;;;;;4997478;28;19921;-80
2022/04/10 11:36:52;;;;;;;;;;;25.00;37.60;;;;;;4997472;28;20281;-80
2022/04/10 11:39:25;;;;;;;;;;;24.90;39.70;;;;;;5015009;28;19917;-79
2022/04/10 11:41:52;;;;;;;;;;;25.50;38.40;;;;;;5015079;28;19910;-80
2022/04/10 11:44:17;;;;;;;;;;;26.60;38.10;;;;;;4997332;28;19963;-79
2022/04/10 11:46:48;;;;;;;;;;;27.20;38.40;;;;;;5014993;28;20000;-80
2022/04/10 11:49:16;;;;;;;;;;;28.30;37.60;;;;;;5014830;28;19910;-79
2022/04/10 11:52:00;;;;;;;;;;;27.90;36.90;;;;;;5014811;28;19909;-80
2022/04/10 11:54:34;;;;;;;;;;;27.00;37.10;;;;;;5015194;28;20471;-80
2022/04/10 11:57:00;;;;;;;;;;;27.30;37.60;;;;;;5014873;28;19932;-80
2022/04/10 11:59:31;;;;;;;;;;;27.30;36.90;;;;;;4997037;28;19910;-80
2022/04/10 12:01:57;;;;;;;;;;;27.90;38.30;;;;;;5014978;28;19910;-79
2022/04/10 12:04:22;;;;;;;;;;;27.40;37.40;;;;;;5014424;28;19914;-79
2022/04/10 12:06:48;;;;;;;;;;;27.80;37.00;;;;;;5014434;28;20432;-79
2022/04/10 12:09:14;;;;;;;;;;;26.80;38.30;;;;;;4996838;28;19909;-79
2022/04/10 12:11:40;;;;;;;;;;;27.10;38.70;;;;;;4996807;28;19910;-79
2022/04/10 12:14:22;;;;;;;;;;;27.50;37.00;;;;;;5014309;28;20267;-79
2022/04/10 12:16:47;;;;;;;;;;;27.00;38.10;;;;;;5014333;28;19956;-79
2022/04/10 12:19:13;;;;;;;;;;;27.00;37.50;;;;;;5014332;28;19909;-80
2022/04/10 12:21:46;;;;;;;;;;;27.10;37.60;;;;;;4996653;28;19918;-79
2022/04/10 12:24:17;;;;;;;;;;;27.40;38.90;;;;;;5014484;28;19909;-79
2022/04/10 12:26:43;;;;;;;;;;;26.10;38.00;;;;;;5014337;28;19921;-79
2022/04/10 12:29:09;;;;;;;;;;;25.60;38.00;;;;;;4996562;28;19917;-79
2022/04/10 12:31:34;;;;;;;;;;;27.60;37.20;;;;;;5014284;28;19951;-79
2022/04/10 12:34:00;;;;;;;;;;;27.40;36.60;;;;;;4996475;28;19909;-79
2022/04/10 12:36:28;;;;;;;;;;;25.70;38.20;;;;;;4996447;28;19910;-79
2022/04/10 12:38:54;;;;;;;;;;;24.60;39.40;;;;;;4996432;28;19909;-79
2022/04/10 12:41:30;;;;;;;;;;;25.00;38.70;;;;;;4996471;28;20317;-80
2022/04/10 12:43:59;;;;;;;;;;;25.20;39.80;;;;;;5014083;28;19945;-79
2022/04/10 12:46:31;;;;;;;;;;;24.30;38.60;;;;;;5013909;28;20009;-78
2022/04/10 12:49:10;;;;;;;;;;;23.00;39.70;;;;;;5014243;28;19964;-78
2022/04/10 12:51:45;;;;;;;;;;;25.20;40.20;;;;;;5013939;28;19916;-79
2022/04/10 12:54:11;;;;;;;;;;;25.30;40.60;;;;;;5014046;28;19910;-79
2022/04/10 12:56:36;;;;;;;;;;;26.00;39.10;;;;;;4996251;28;20259;-79
2022/04/10 12:59:02;;;;;;;;;;;27.00;39.70;;;;;;5013873;28;19909;-79
2022/04/10 13:01:29;;;;;;;;;;;27.00;38.60;;;;;;5014002;28;19976;-79
2022/04/10 13:03:56;;;;;;;;;;;26.20;37.70;;;;;;5014015;28;20336;-79
2022/04/10 13:06:27;;;;;;;;;;;25.10;38.10;;;;;;4996069;28;19981;-78
2022/04/10 13:09:08;;;;;;;;;;;26.60;37.40;;;;;;5013794;28;19915;-79
2022/04/10 13:11:37;;;;;;;;;;;27.50;38.20;;;;;;4996110;28;19909;-79
2022/04/10 13:14:08;;;;;;;;;;;28.30;38.10;;;;;;5012308;28;20012;-78
2022/04/10 13:16:37;;;;;;;;;;;28.40;37.30;;;;;;5017873;28;19979;-79
2022/04/10 13:19:04;;;;;;;;;;;28.60;37.70;;;;;;5017695;28;19910;-79
2022/04/10 13:21:30;;;;;;;;;;;27.20;36.90;;;;;;5017656;28;19910;-79
2022/04/10 13:23:55;;;;;;;;;;;27.40;37.50;;;;;;5000034;28;20278;-79
2022/04/10 13:26:32;;;;;;;;;;;26.30;38.80;;;;;;5017631;28;19920;-79
2022/04/10 13:29:02;;;;;;;;;;;26.70;38.90;;;;;;4999894;28;19910;-78
2022/04/10 13:31:28;;;;;;;;;;;27.30;37.90;;;;;;5017660;28;20393;-79
2022/04/10 13:33:54;;;;;;;;;;;28.20;37.70;;;;;;5017704;28;19910;-80
2022/04/10 13:36:20;;;;;;;;;;;29.10;36.60;;;;;;5017502;28;19992;-79
2022/04/10 13:38:46;;;;;;;;;;;28.80;36.20;;;;;;5017316;28;19952;-79
2022/04/10 13:41:11;;;;;;;;;;;28.60;36.20;;;;;;5017290;28;20384;-78
2022/04/10 13:43:37;;;;;;;;;;;27.40;37.20;;;;;;4999649;28;19913;-79
2022/04/10 13:46:03;;;;;;;;;;;28.30;37.00;;;;;;5017140;28;20282;-79
2022/04/10 13:48:28;;;;;;;;;;;28.90;37.30;;;;;;4999301;28;19939;-79
2022/04/10 13:50:54;;;;;;;;;;;28.90;36.70;;;;;;5017523;28;19945;-79
2022/04/10 13:53:20;;;;;;;;;;;30.00;38.20;;;;;;5017033;28;20388;-80
2022/04/10 13:55:45;;;;;;;;;;;29.20;35.60;;;;;;4999424;28;19961;-78
2022/04/10 13:58:11;;;;;;;;;;;29.90;36.50;;;;;;5017094;28;20289;-79
2022/04/10 14:00:38;;;;;;;;;;;30.10;35.00;;;;;;4999322;28;19910;-79
2022/04/10 14:03:04;;;;;;;;;;;28.90;35.20;;;;;;5016891;28;19933;-80
2022/04/10 14:05:30;;;;;;;;;;;27.50;37.70;;;;;;5017135;28;19996;-80
2022/04/10 14:07:55;;;;;;;;;;;26.50;38.70;;;;;;5016836;28;19909;-79
2022/04/10 14:10:21;;;;;;;;;;;25.70;38.30;;;;;;5016719;28;19909;-78
2022/04/10 14:12:46;;;;;;;;;;;25.00;39.10;;;;;;5016445;28;19916;-78
2022/04/10 14:15:12;;;;;;;;;;;24.10;38.50;;;;;;4999006;28;19913;-78
2022/04/10 14:17:38;;;;;;;;;;;23.90;39.70;;;;;;5016890;28;20008;-78
2022/04/10 14:20:03;;;;;;;;;;;22.80;40.20;;;;;;4998859;28;19909;-78
2022/04/10 14:22:29;;;;;;;;;;;22.80;41.90;;;;;;5016838;28;19956;-78
2022/04/10 14:24:54;;;;;;;;;;;23.10;40.90;;;;;;4998869;28;20012;-78
2022/04/10 14:27:20;;;;;;;;;;;23.40;41.40;;;;;;5016635;28;19913;-79
2022/04/10 14:29:46;;;;;;;;;;;23.10;42.30;;;;;;5016571;28;19909;-79